Terminal Aerodrome Forecast
Issued by NWS

Home | Current Version | Previous Version | Text Only | Print | Product List | Glossary On
Versions: 1 2 3 4 5 6 7 8 9 10 11 12 13 14 15 16
000
FTUS44 KSJT 231300 RRA
TAFSOA
TAF
KSOA 231300Z 2313/2412 VRB04KT P6SM FEW250
     FM231700 08007KT P6SM SCT080
     FM240100 VRB04KT P6SM SKC=

USA.gov is the U.S. government's official web portal to all federal, state and local government web resources and services.